createdAt,value
2018-01-24T00:01:18.479Z,12.70
2018-01-24T00:03:46.094Z,13.63
2018-01-24T00:06:13.865Z,12.37
2018-01-24T00:08:41.943Z,14.13
2018-01-24T00:11:09.620Z,13.27
2018-01-24T00:13:37.339Z,14.10
2018-01-24T00:16:05.693Z,13.60
2018-01-24T00:18:33.316Z,15.10
2018-01-24T00:21:00.902Z,14.37
2018-01-24T00:23:28.493Z,14.60
2018-01-24T00:25:56.054Z,13.90
2018-01-24T00:28:23.662Z,13.77
2018-01-24T00:30:51.290Z,13.07
2018-01-24T00:33:18.867Z,13.50
2018-01-24T00:35:46.430Z,30.50
2018-01-24T00:38:14.108Z,38.90
2018-01-24T00:40:41.724Z,23.07
2018-01-24T00:43:10.073Z,18.87
2018-01-24T00:45:37.683Z,14.47
2018-01-24T00:48:05.268Z,12.97
2018-01-24T00:50:32.841Z,13.80
2018-01-24T00:53:00.470Z,13.40
2018-01-24T00:55:28.047Z,13.73
2018-01-24T00:57:55.595Z,12.97
2018-01-24T01:00:23.288Z,13.03
2018-01-24T01:02:50.859Z,13.33
2018-01-24T01:05:18.413Z,11.80
2018-01-24T01:07:46.148Z,12.13
2018-01-24T01:10:13.723Z,11.87
2018-01-24T01:12:41.308Z,11.77
2018-01-24T01:15:09.450Z,11.90
2018-01-24T01:17:37.038Z,12.10
2018-01-24T01:20:04.709Z,11.47
2018-01-24T01:22:32.330Z,11.73
2018-01-24T01:24:59.891Z,12.20
2018-01-24T01:27:27.438Z,11.40
2018-01-24T01:29:55.030Z,11.87
2018-01-24T01:32:22.638Z,11.30
2018-01-24T01:34:51.032Z,11.60
2018-01-24T01:37:18.868Z,11.27
2018-01-24T01:39:46.585Z,11.30
2018-01-24T01:42:14.236Z,11.00
2018-01-24T01:44:41.831Z,11.27
2018-01-24T01:47:09.486Z,11.40
2018-01-24T01:49:37.066Z,12.00
2018-01-24T01:52:04.676Z,11.90
2018-01-24T01:54:32.259Z,11.50
2018-01-24T01:56:59.919Z,12.07
2018-01-24T01:59:27.628Z,10.90
2018-01-24T02:01:55.203Z,10.73
2018-01-24T02:04:23.525Z,11.13
2018-01-24T02:06:51.736Z,11.73
2018-01-24T02:09:19.303Z,10.37
2018-01-24T02:11:46.916Z,11.47
2018-01-24T02:14:16.741Z,10.70
2018-01-24T02:16:44.471Z,10.80
2018-01-24T02:19:12.000Z,11.53
2018-01-24T02:21:39.614Z,10.37
2018-01-24T02:24:07.290Z,9.67
2018-01-24T02:26:34.859Z,9.60
2018-01-24T02:29:02.575Z,9.93
2018-01-24T02:31:30.144Z,10.10
2018-01-24T02:33:58.408Z,9.70
2018-01-24T02:36:26.046Z,9.77
2018-01-24T02:39:05.487Z,9.40
2018-01-24T02:41:33.924Z,9.00
2018-01-24T02:44:01.444Z,9.60
2018-01-24T02:46:29.250Z,10.23
2018-01-24T02:48:56.816Z,10.30
2018-01-24T02:51:24.381Z,9.43
2018-01-24T02:53:52.133Z,10.00
2018-01-24T02:56:19.782Z,10.60
2018-01-24T02:58:47.390Z,9.80
2018-01-24T03:01:16.157Z,10.70
2018-01-24T03:03:43.708Z,10.03
2018-01-24T03:06:12.274Z,9.70
2018-01-24T03:08:39.786Z,11.17
2018-01-24T03:11:07.371Z,11.50
2018-01-24T03:13:34.971Z,13.27
2018-01-24T03:16:02.536Z,12.47
2018-01-24T03:18:30.136Z,15.00
2018-01-24T03:20:59.616Z,13.70
2018-01-24T03:23:27.970Z,13.27
2018-01-24T03:25:55.483Z,14.03
2018-01-24T03:28:23.863Z,13.50
2018-01-24T03:30:51.667Z,13.80
2018-01-24T03:33:19.341Z,15.70
2018-01-24T03:35:47.151Z,15.70
2018-01-24T03:38:15.516Z,16.23
2018-01-24T03:40:43.842Z,16.17
2018-01-24T03:43:11.388Z,16.70
2018-01-24T03:45:39.175Z,16.87
2018-01-24T03:48:06.715Z,16.27
2018-01-24T03:50:34.254Z,17.80
2018-01-24T03:53:02.569Z,18.70
2018-01-24T03:55:30.270Z,19.30
2018-01-24T03:57:58.662Z,18.03
2018-01-24T04:00:26.900Z,16.90
2018-01-24T04:02:55.980Z,15.67
2018-01-24T04:05:23.520Z,15.20
2018-01-24T04:07:51.855Z,15.47
2018-01-24T04:10:19.454Z,13.70
2018-01-24T04:12:47.958Z,13.83
2018-01-24T04:15:16.430Z,17.43
2018-01-24T04:17:43.962Z,13.80
2018-01-24T04:20:12.247Z,13.17
2018-01-24T04:22:39.825Z,14.90
2018-01-24T04:25:07.403Z,13.63
2018-01-24T04:27:35.526Z,14.50
2018-01-24T04:30:04.044Z,14.13
2018-01-24T04:32:31.578Z,14.07
2018-01-24T04:34:59.918Z,13.20
2018-01-24T04:37:27.452Z,14.20
2018-01-24T04:39:55.066Z,12.90
2018-01-24T04:42:23.392Z,13.23
2018-01-24T04:44:51.154Z,14.87
2018-01-24T04:47:18.814Z,13.80
2018-01-24T04:49:46.398Z,13.30
2018-01-24T04:52:14.398Z,13.27
2018-01-24T04:54:42.120Z,11.70
2018-01-24T04:57:09.697Z,9.83
2018-01-24T04:59:38.114Z,11.70
2018-01-24T05:02:05.662Z,9.90
2018-01-24T05:04:34.100Z,8.80
2018-01-24T05:07:01.655Z,10.83
2018-01-24T05:09:29.270Z,8.90
2018-01-24T05:11:56.900Z,8.10
2018-01-24T05:14:24.499Z,7.20
2018-01-24T05:16:52.125Z,8.73
2018-01-24T05:19:19.672Z,9.40
2018-01-24T05:21:47.223Z,8.33
2018-01-24T05:24:14.778Z,8.77
2018-01-24T05:26:42.764Z,8.80
2018-01-24T05:29:10.347Z,8.73
2018-01-24T05:31:38.249Z,8.63
2018-01-24T05:34:06.379Z,9.37
2018-01-24T05:36:33.994Z,9.40
2018-01-24T05:39:02.170Z,10.30
2018-01-24T05:41:30.231Z,9.57
2018-01-24T05:43:58.532Z,9.50
2018-01-24T05:46:26.121Z,9.50
2018-01-24T05:48:53.642Z,10.90
2018-01-24T05:51:21.194Z,10.23
2018-01-24T05:53:48.786Z,10.60
2018-01-24T05:56:17.193Z,11.37
2018-01-24T05:58:45.666Z,12.43
2018-01-24T06:01:13.223Z,10.20
2018-01-24T06:03:40.863Z,11.90
2018-01-24T06:06:08.731Z,13.03
2018-01-24T06:08:36.296Z,14.50
2018-01-24T06:11:03.860Z,13.23
2018-01-24T06:13:32.025Z,13.80
2018-01-24T06:16:00.453Z,12.73
2018-01-24T06:18:28.847Z,13.30
2018-01-24T06:20:57.197Z,14.53
2018-01-24T06:23:24.844Z,13.93
2018-01-24T06:25:52.428Z,14.47
2018-01-24T06:28:19.983Z,15.00
2018-01-24T06:30:48.367Z,16.93
2018-01-24T06:33:16.542Z,19.63
2018-01-24T06:35:45.066Z,18.37
2018-01-24T06:38:12.620Z,17.63
2018-01-24T06:40:40.708Z,16.17
2018-01-24T06:43:08.289Z,17.57
2018-01-24T06:45:36.487Z,19.23
2018-01-24T06:48:04.635Z,19.80
2018-01-24T06:50:32.206Z,20.20
2018-01-24T06:52:59.792Z,21.67
2018-01-24T06:55:28.186Z,21.97
2018-01-24T06:57:55.993Z,22.10
2018-01-24T07:00:24.329Z,20.63
2018-01-24T07:02:52.618Z,21.07
2018-01-24T07:05:20.388Z,23.83
2018-01-24T07:07:48.418Z,22.60
2018-01-24T07:10:15.974Z,22.27
2018-01-24T07:12:55.254Z,20.93
2018-01-24T07:15:23.294Z,20.60
2018-01-24T07:17:52.307Z,21.00
2018-01-24T07:20:20.910Z,20.47
2018-01-24T07:22:48.809Z,19.33
2018-01-24T07:25:16.395Z,17.87
2018-01-24T07:27:44.040Z,31.50
2018-01-24T07:30:11.580Z,38.17
2018-01-24T07:32:40.898Z,28.70
2018-01-24T07:35:10.619Z,20.70
2018-01-24T07:37:38.990Z,19.80
2018-01-24T07:40:07.739Z,18.97
2018-01-24T07:42:35.311Z,16.27
2018-01-24T07:45:03.011Z,18.80
2018-01-24T07:47:30.628Z,16.77
2018-01-24T07:49:58.533Z,17.70
2018-01-24T07:52:27.011Z,16.33
2018-01-24T07:54:55.459Z,15.60
2018-01-24T07:57:23.787Z,16.20
2018-01-24T07:59:52.977Z,17.23
2018-01-24T08:02:21.362Z,16.90
2018-01-24T08:04:48.945Z,17.60
2018-01-24T08:07:16.560Z,16.63
2018-01-24T08:09:44.148Z,16.60
2018-01-24T08:12:11.713Z,16.57
2018-01-24T08:14:40.312Z,17.57
2018-01-24T08:17:07.930Z,18.10
2018-01-24T08:19:36.019Z,32.07
2018-01-24T08:22:04.387Z,26.40
2018-01-24T08:24:31.983Z,33.00
2018-01-24T08:26:59.564Z,23.60
2018-01-24T08:29:27.258Z,18.97
2018-01-24T08:31:54.816Z,18.50
2018-01-24T08:34:22.682Z,18.07
2018-01-24T08:36:50.341Z,17.80
2018-01-24T08:39:18.001Z,19.50
2018-01-24T08:41:46.432Z,18.57
2018-01-24T08:44:14.159Z,19.60
2018-01-24T08:46:41.774Z,20.50
2018-01-24T08:49:09.373Z,19.73
2018-01-24T08:51:37.014Z,21.83
2018-01-24T08:54:05.438Z,21.50
2018-01-24T08:56:33.712Z,20.23
2018-01-24T08:59:01.329Z,19.80
2018-01-24T09:01:28.912Z,21.70
2018-01-24T09:04:13.977Z,23.13
2018-01-24T09:06:59.975Z,24.40
2018-01-24T09:09:45.056Z,25.93
2018-01-24T09:12:30.259Z,25.70
2018-01-24T09:15:16.445Z,50.97
2018-01-24T09:18:02.469Z,54.50
2018-01-24T09:20:48.249Z,40.10
2018-01-24T09:23:34.160Z,37.27
2018-01-24T09:26:01.745Z,35.17
2018-01-24T09:28:29.830Z,37.20
2018-01-24T09:30:58.402Z,37.27
2018-01-24T09:33:26.051Z,40.10
2018-01-24T09:35:54.835Z,39.93
2018-01-24T09:38:22.566Z,39.50
2018-01-24T09:40:50.224Z,40.77
2018-01-24T09:43:17.854Z,41.87
2018-01-24T09:45:45.484Z,42.93
2018-01-24T09:48:13.054Z,42.93
2018-01-24T09:50:41.433Z,43.50
2018-01-24T09:53:09.166Z,44.10
2018-01-24T09:55:37.586Z,41.73
2018-01-24T09:58:06.238Z,43.93
2018-01-24T10:00:33.947Z,45.87
2018-01-24T10:03:01.572Z,44.20
2018-01-24T10:05:29.227Z,44.77
2018-01-24T10:07:56.806Z,44.60
2018-01-24T10:10:24.467Z,45.20
2018-01-24T10:12:52.118Z,46.10
2018-01-24T10:15:19.726Z,45.90
2018-01-24T10:17:48.686Z,48.13
2018-01-24T10:20:16.316Z,49.30
2018-01-24T10:22:43.921Z,70.30
2018-01-24T10:25:11.557Z,69.40
2018-01-24T10:27:39.174Z,54.20
2018-01-24T10:30:08.923Z,47.80
2018-01-24T10:32:36.951Z,43.43
2018-01-24T10:35:05.432Z,45.20
2018-01-24T10:37:33.940Z,45.63
2018-01-24T10:40:01.624Z,46.47
2018-01-24T10:42:29.267Z,45.50
2018-01-24T10:44:56.875Z,45.57
2018-01-24T10:47:24.478Z,44.47
2018-01-24T10:49:52.574Z,44.23
2018-01-24T10:52:22.119Z,46.23
2018-01-24T10:54:49.731Z,46.43
2018-01-24T10:57:17.327Z,42.20
2018-01-24T10:59:45.695Z,43.97
2018-01-24T11:02:13.957Z,44.00
2018-01-24T11:04:43.151Z,41.07
2018-01-24T11:07:10.721Z,42.80
2018-01-24T11:09:38.449Z,54.17
2018-01-24T11:12:06.884Z,99.20
2018-01-24T11:14:34.661Z,61.00
2018-01-24T11:17:02.292Z,49.77
2018-01-24T11:19:30.201Z,46.70
2018-01-24T11:21:58.483Z,44.67
2018-01-24T11:24:26.997Z,44.47
2018-01-24T11:26:54.587Z,45.37
2018-01-24T11:29:22.179Z,44.97
2018-01-24T11:31:49.864Z,55.47
2018-01-24T11:34:18.249Z,49.50
2018-01-24T11:36:45.834Z,51.17
2018-01-24T11:39:13.573Z,51.03
2018-01-24T11:41:41.905Z,47.00
2018-01-24T11:44:09.541Z,44.40
2018-01-24T11:46:38.099Z,44.73
2018-01-24T11:49:05.710Z,45.13
2018-01-24T11:51:33.324Z,43.90
2018-01-24T11:54:00.906Z,43.23
2018-01-24T11:56:28.476Z,41.80
2018-01-24T11:58:56.587Z,40.97
2018-01-24T12:01:25.940Z,43.80
2018-01-24T12:03:54.906Z,43.23
2018-01-24T12:06:22.779Z,43.50
2018-01-24T12:08:51.396Z,43.13
2018-01-24T12:11:19.027Z,42.87
2018-01-24T12:13:46.786Z,50.20
2018-01-24T12:16:14.413Z,53.90
2018-01-24T12:18:42.018Z,50.07
2018-01-24T12:21:09.639Z,45.30
2018-01-24T12:23:37.255Z,41.43
2018-01-24T12:26:04.880Z,39.37
2018-01-24T12:28:33.241Z,37.87
2018-01-24T12:31:00.908Z,36.97
2018-01-24T12:33:29.299Z,39.17
2018-01-24T12:35:56.897Z,37.20
2018-01-24T12:38:24.745Z,40.80
2018-01-24T12:40:52.317Z,39.10
2018-01-24T12:43:19.924Z,40.20
2018-01-24T12:45:47.495Z,40.73
2018-01-24T12:48:15.074Z,41.00
2018-01-24T12:50:43.409Z,40.17
2018-01-24T12:53:11.636Z,38.43
2018-01-24T12:55:39.444Z,40.23
2018-01-24T12:58:07.248Z,40.33
2018-01-24T13:00:34.773Z,38.03
2018-01-24T13:03:02.336Z,36.70
2018-01-24T13:05:29.992Z,38.33
2018-01-24T13:07:57.525Z,36.90
2018-01-24T13:10:25.102Z,37.17
2018-01-24T13:12:52.643Z,62.03
2018-01-24T13:15:20.240Z,54.60
2018-01-24T13:17:48.198Z,46.97
2018-01-24T13:20:15.747Z,37.57
2018-01-24T13:22:43.272Z,35.60
2018-01-24T13:25:10.887Z,37.30
2018-01-24T13:27:39.724Z,37.13
2018-01-24T13:30:08.083Z,39.27
2018-01-24T13:32:36.399Z,38.13
2018-01-24T13:35:04.990Z,38.70
2018-01-24T13:37:32.536Z,35.90
2018-01-24T13:40:00.093Z,37.20
2018-01-24T13:42:27.766Z,37.47
2018-01-24T13:44:55.378Z,38.10
2018-01-24T13:47:22.948Z,38.13
2018-01-24T13:49:51.288Z,40.23
2018-01-24T13:52:18.984Z,50.10
2018-01-24T13:54:46.573Z,50.07
2018-01-24T13:57:15.169Z,57.27
2018-01-24T13:59:42.687Z,52.30
2018-01-24T14:02:10.263Z,41.90
2018-01-24T14:04:37.896Z,38.57
2018-01-24T14:07:05.455Z,41.93
2018-01-24T14:09:32.990Z,38.70
2018-01-24T14:12:00.552Z,37.53
2018-01-24T14:14:29.347Z,38.23
2018-01-24T14:16:57.563Z,39.00
2018-01-24T14:19:26.005Z,38.80
2018-01-24T14:21:53.601Z,39.10
2018-01-24T14:24:21.191Z,40.43
2018-01-24T14:26:48.798Z,38.47
2018-01-24T14:29:16.431Z,37.40
2018-01-24T14:31:45.390Z,40.53
2018-01-24T14:34:12.939Z,38.53
2018-01-24T14:36:41.315Z,38.80
2018-01-24T14:39:09.279Z,38.53
2018-01-24T14:41:36.867Z,36.03
2018-01-24T14:44:04.412Z,36.00
2018-01-24T14:46:32.911Z,36.87
2018-01-24T14:49:00.480Z,37.53
2018-01-24T14:51:28.649Z,33.80
2018-01-24T14:53:56.181Z,34.27
2018-01-24T14:56:24.503Z,33.50
2018-01-24T14:58:52.071Z,34.20
2018-01-24T15:01:21.207Z,32.90
2018-01-24T15:03:49.604Z,34.20
2018-01-24T15:06:17.965Z,32.07
2018-01-24T15:08:45.547Z,32.20
2018-01-24T15:11:13.129Z,32.20
2018-01-24T15:13:40.700Z,31.27
2018-01-24T15:16:08.292Z,29.87
2018-01-24T15:18:35.912Z,56.57
2018-01-24T15:21:04.235Z,64.63
2018-01-24T15:23:31.858Z,55.20
2018-01-24T15:25:59.514Z,41.67
2018-01-24T15:28:27.093Z,38.30
2018-01-24T15:30:56.827Z,33.33
2018-01-24T15:33:26.023Z,31.23
2018-01-24T15:35:53.595Z,31.03
2018-01-24T15:38:21.150Z,31.90
2018-01-24T15:40:48.719Z,31.37
2018-01-24T15:43:16.273Z,31.40
2018-01-24T15:45:45.807Z,30.03
2018-01-24T15:48:13.439Z,32.20
2018-01-24T15:50:41.222Z,31.17
2018-01-24T15:53:09.928Z,31.70
2018-01-24T15:55:37.515Z,39.20
2018-01-24T15:58:05.347Z,82.80
2018-01-24T16:00:32.906Z,51.93
2018-01-24T16:03:00.974Z,40.70
2018-01-24T16:05:29.393Z,36.47
2018-01-24T16:07:56.933Z,34.10
2018-01-24T16:10:24.555Z,32.50
2018-01-24T16:12:52.135Z,32.57
2018-01-24T16:15:20.765Z,33.27
2018-01-24T16:17:48.816Z,33.67
2018-01-24T16:20:16.440Z,35.50
2018-01-24T16:22:44.242Z,35.40
2018-01-24T16:25:12.589Z,35.80
2018-01-24T16:27:40.154Z,37.27
2018-01-24T16:30:10.027Z,36.50
2018-01-24T16:32:37.579Z,36.83
2018-01-24T16:35:05.314Z,39.00
2018-01-24T16:37:32.899Z,37.93
2018-01-24T16:40:00.501Z,40.10
2018-01-24T16:42:28.866Z,37.43
2018-01-24T16:44:56.490Z,36.90
2018-01-24T16:47:25.692Z,38.43
2018-01-24T16:49:53.287Z,37.13
2018-01-24T16:52:20.847Z,36.27
2018-01-24T16:54:48.633Z,38.67
2018-01-24T16:57:17.201Z,39.17
2018-01-24T16:59:44.769Z,36.77
2018-01-24T17:02:13.129Z,38.20
2018-01-24T17:04:40.684Z,38.33
2018-01-24T17:07:08.354Z,36.07
2018-01-24T17:09:38.051Z,36.73
2018-01-24T17:12:05.601Z,35.73
2018-01-24T17:14:33.753Z,37.00
2018-01-24T17:17:01.312Z,35.93
2018-01-24T17:19:29.001Z,37.77
2018-01-24T17:21:56.577Z,35.53
2018-01-24T17:24:24.105Z,35.63
2018-01-24T17:26:51.801Z,34.20
2018-01-24T17:29:20.444Z,35.17
2018-01-24T17:31:48.022Z,34.57
2018-01-24T17:34:16.517Z,33.17
2018-01-24T17:36:44.191Z,34.20
2018-01-24T17:39:11.760Z,31.10
2018-01-24T17:41:40.260Z,32.77
2018-01-24T17:44:08.980Z,32.50
2018-01-24T17:46:36.555Z,31.30
2018-01-24T17:49:04.317Z,31.00
2018-01-24T17:51:32.913Z,29.87
2018-01-24T17:54:00.444Z,29.40
2018-01-24T17:56:28.066Z,29.03
2018-01-24T17:58:56.672Z,28.13
2018-01-24T18:01:24.285Z,27.37
2018-01-24T18:03:51.879Z,26.73
2018-01-24T18:06:20.300Z,27.20
2018-01-24T18:08:48.895Z,26.77
2018-01-24T18:11:16.669Z,27.50
2018-01-24T18:13:44.542Z,26.97
2018-01-24T18:16:12.154Z,28.37
2018-01-24T18:18:39.772Z,25.90
2018-01-24T18:21:08.017Z,27.93
2018-01-24T18:23:36.209Z,26.97
2018-01-24T18:26:03.770Z,28.60
2018-01-24T18:28:32.185Z,30.17
2018-01-24T18:31:01.217Z,28.43
2018-01-24T18:33:28.821Z,29.87
2018-01-24T18:35:57.295Z,29.83
2018-01-24T18:38:24.891Z,32.90
2018-01-24T18:40:52.453Z,35.50
2018-01-24T18:43:20.112Z,31.87
2018-01-24T18:45:47.812Z,33.20
2018-01-24T18:48:15.474Z,28.20
2018-01-24T18:50:43.349Z,29.47
2018-01-24T18:53:10.985Z,30.57
2018-01-24T18:55:38.563Z,29.60
2018-01-24T18:58:06.144Z,29.23
2018-01-24T19:00:34.350Z,30.73
2018-01-24T19:03:06.415Z,29.97
2018-01-24T19:05:33.971Z,29.67
2018-01-24T19:08:02.414Z,29.90
2018-01-24T19:10:30.033Z,30.20
2018-01-24T19:12:57.636Z,30.13
2018-01-24T19:15:25.254Z,27.40
2018-01-24T19:17:53.654Z,31.90
2018-01-24T19:20:21.606Z,32.33
2018-01-24T19:22:49.195Z,30.70
2018-01-24T19:25:16.795Z,30.80
2018-01-24T19:27:44.439Z,31.27
2018-01-24T19:30:12.060Z,29.40
2018-01-24T19:32:39.621Z,30.50
2018-01-24T19:35:07.979Z,31.67
2018-01-24T19:37:36.368Z,30.50
2018-01-24T19:40:04.830Z,31.97
2018-01-24T19:42:33.215Z,32.60
2018-01-24T19:45:00.780Z,30.47
2018-01-24T19:47:28.386Z,29.70
2018-01-24T19:49:57.140Z,30.43
2018-01-24T19:52:24.819Z,32.27
2018-01-24T19:54:52.416Z,30.90
2018-01-24T19:57:20.003Z,29.37
2018-01-24T19:59:48.371Z,30.70
2018-01-24T20:02:16.079Z,30.77
2018-01-24T20:04:43.708Z,30.40
2018-01-24T20:07:11.316Z,29.13
2018-01-24T20:09:39.715Z,31.30
2018-01-24T20:12:08.337Z,31.00
2018-01-24T20:14:35.999Z,29.70
2018-01-24T20:17:04.407Z,30.27
2018-01-24T20:19:32.003Z,27.00
2018-01-24T20:21:59.628Z,28.83
2018-01-24T20:24:28.176Z,28.80
2018-01-24T20:26:55.783Z,30.37
2018-01-24T20:29:23.374Z,26.03
2018-01-24T20:31:51.029Z,27.43
2018-01-24T20:34:18.663Z,27.43
2018-01-24T20:36:46.493Z,27.97
2018-01-24T20:39:15.535Z,27.20
2018-01-24T20:41:43.085Z,26.33
2018-01-24T20:44:10.936Z,26.00
2018-01-24T20:46:38.526Z,25.93
2018-01-24T20:49:06.234Z,26.43
2018-01-24T20:51:33.849Z,25.33
2018-01-24T20:54:01.434Z,26.80
2018-01-24T20:56:29.035Z,25.70
2018-01-24T20:58:57.339Z,24.80
2018-01-24T21:01:25.222Z,24.93
2018-01-24T21:03:52.763Z,25.33
2018-01-24T21:06:20.399Z,24.23
2018-01-24T21:08:48.750Z,25.50
2018-01-24T21:11:16.386Z,25.53
2018-01-24T21:13:43.919Z,24.73
2018-01-24T21:16:11.477Z,22.50
2018-01-24T21:18:39.027Z,24.03
2018-01-24T21:21:06.590Z,23.77
2018-01-24T21:23:34.240Z,21.77
2018-01-24T21:26:02.545Z,23.77
2018-01-24T21:28:42.003Z,24.80
2018-01-24T21:31:21.346Z,22.83
2018-01-24T21:33:50.792Z,24.00
2018-01-24T21:36:30.186Z,24.93
2018-01-24T21:38:57.801Z,22.87
2018-01-24T21:41:25.412Z,21.17
2018-01-24T21:43:52.993Z,21.57
2018-01-24T21:46:20.543Z,22.10
2018-01-24T21:48:48.112Z,21.77
2018-01-24T21:51:16.416Z,22.10
2018-01-24T21:53:44.782Z,21.57
2018-01-24T21:56:12.366Z,21.57
2018-01-24T21:58:39.880Z,21.73
2018-01-24T22:01:07.469Z,19.97
2018-01-24T22:03:35.016Z,21.70
2018-01-24T22:06:02.549Z,20.30
2018-01-24T22:08:30.133Z,21.00
2018-01-24T22:10:58.551Z,21.90
2018-01-24T22:13:26.171Z,19.73
2018-01-24T22:15:53.762Z,20.10
2018-01-24T22:18:21.415Z,20.13
2018-01-24T22:20:49.405Z,21.00
2018-01-24T22:23:16.994Z,20.27
2018-01-24T22:25:44.643Z,19.63
2018-01-24T22:28:12.246Z,19.47
2018-01-24T22:30:39.819Z,20.30
2018-01-24T22:33:07.417Z,20.97
2018-01-24T22:35:35.016Z,21.80
2018-01-24T22:38:02.566Z,20.87
2018-01-24T22:40:30.168Z,20.07
2018-01-24T22:42:57.799Z,21.33
2018-01-24T22:45:25.406Z,20.90
2018-01-24T22:47:52.949Z,23.10
2018-01-24T22:50:21.272Z,20.43
2018-01-24T22:52:48.831Z,22.20
2018-01-24T22:55:16.431Z,20.93
2018-01-24T22:57:43.952Z,21.03
2018-01-24T23:00:11.618Z,21.93
2018-01-24T23:02:39.201Z,21.87
2018-01-24T23:05:07.525Z,21.43
2018-01-24T23:07:35.046Z,21.20
2018-01-24T23:10:02.622Z,20.80
2018-01-24T23:12:30.216Z,22.63
2018-01-24T23:14:57.754Z,19.23
2018-01-24T23:17:25.325Z,22.63
2018-01-24T23:19:52.915Z,19.50
2018-01-24T23:22:20.440Z,21.33
2018-01-24T23:24:47.969Z,20.67
2018-01-24T23:27:15.855Z,21.70
2018-01-24T23:29:44.282Z,20.73
2018-01-24T23:32:11.865Z,21.43
2018-01-24T23:34:39.439Z,20.13
2018-01-24T23:37:07.008Z,22.10
2018-01-24T23:39:35.375Z,21.53
2018-01-24T23:42:03.986Z,21.27
2018-01-24T23:44:32.350Z,21.13
2018-01-24T23:47:00.741Z,21.80
2018-01-24T23:49:28.464Z,20.27
2018-01-24T23:51:56.611Z,20.00
2018-01-24T23:54:24.161Z,20.80
2018-01-24T23:56:51.856Z,22.27
2018-01-24T23:59:19.510Z,21.73
